createdAt,value
2018-07-05T00:02:08.734Z,97751.82
2018-07-05T00:04:48.154Z,97748.08
2018-07-05T00:07:27.646Z,97747.50
2018-07-05T00:10:07.257Z,97753.79
2018-07-05T00:12:46.817Z,97754.38
2018-07-05T00:15:26.448Z,97758.13
2018-07-05T00:18:05.870Z,97769.17
2018-07-05T00:20:45.381Z,97763.27
2018-07-05T00:23:24.861Z,97760.69
2018-07-05T00:26:04.309Z,97754.19
2018-07-05T00:28:43.885Z,97757.36
2018-07-05T00:31:23.275Z,97755.58
2018-07-05T00:34:02.901Z,97765.03
2018-07-05T00:36:42.352Z,97765.63
2018-07-05T00:39:21.881Z,97770.74
2018-07-05T00:42:01.717Z,97756.39
2018-07-05T00:44:41.222Z,97758.19
2018-07-05T00:47:20.692Z,97754.47
2018-07-05T00:50:00.107Z,97752.89
2018-07-05T00:52:39.742Z,97753.67
2018-07-05T00:55:19.416Z,97745.98
2018-07-05T00:57:58.969Z,97739.89
2018-07-05T01:00:38.693Z,97744.23
2018-07-05T01:03:18.385Z,97743.27
2018-07-05T01:05:57.815Z,97743.66
2018-07-05T01:08:37.361Z,97742.67
2018-07-05T01:11:16.721Z,97747.19
2018-07-05T01:13:56.231Z,97755.45
2018-07-05T01:16:35.585Z,97751.13
2018-07-05T01:19:15.115Z,97746.20
2018-07-05T01:21:54.411Z,97739.13
2018-07-05T01:24:33.995Z,97736.19
2018-07-05T01:27:13.516Z,97743.46
2018-07-05T01:29:52.955Z,97743.27
2018-07-05T01:32:32.407Z,97744.45
2018-07-05T01:35:11.743Z,97743.44
2018-07-05T01:37:51.044Z,97738.14
2018-07-05T01:40:30.496Z,97737.75
2018-07-05T01:43:10.156Z,97738.51
2018-07-05T01:45:49.686Z,97740.25
2018-07-05T01:48:29.166Z,97736.12
2018-07-05T01:51:08.678Z,97738.47
2018-07-05T01:53:48.254Z,97719.80
2018-07-05T01:56:27.986Z,97728.64
2018-07-05T01:59:07.406Z,97723.52
2018-07-05T02:01:46.850Z,97723.33
2018-07-05T02:04:26.370Z,97722.55
2018-07-05T02:07:05.824Z,97722.35
2018-07-05T02:09:45.225Z,97722.55
2018-07-05T02:12:24.834Z,97724.51
2018-07-05T02:15:04.310Z,97727.45
2018-07-05T02:17:43.793Z,97721.95
2018-07-05T02:20:23.303Z,97725.88
2018-07-05T02:23:02.957Z,97721.72
2018-07-05T02:25:42.329Z,97718.77
2018-07-05T02:28:21.989Z,97717.97
2018-07-05T02:31:01.370Z,97727.01
2018-07-05T02:33:40.916Z,97719.14
2018-07-05T02:36:20.806Z,97718.95
2018-07-05T02:39:05.781Z,97715.60
2018-07-05T02:41:45.461Z,97721.48
2018-07-05T02:44:24.899Z,97733.28
2018-07-05T02:47:04.368Z,97737.01
2018-07-05T02:49:43.973Z,97731.69
2018-07-05T02:52:23.416Z,97734.44
2018-07-05T02:55:03.281Z,97734.45
2018-07-05T02:57:42.711Z,97741.70
2018-07-05T03:00:22.248Z,97740.74
2018-07-05T03:03:01.827Z,97747.05
2018-07-05T03:05:41.433Z,97752.73
2018-07-05T03:08:21.152Z,97747.42
2018-07-05T03:11:00.619Z,97732.48
2018-07-05T03:13:40.069Z,97729.13
2018-07-05T03:16:19.698Z,97734.04
2018-07-05T03:18:59.159Z,97735.41
2018-07-05T03:21:38.595Z,97732.63
2018-07-05T03:24:17.880Z,97729.09
2018-07-05T03:26:57.573Z,97737.73
2018-07-05T03:29:37.026Z,97734.24
2018-07-05T03:32:16.676Z,97736.02
2018-07-05T03:34:56.078Z,97736.03
2018-07-05T03:37:35.610Z,97739.73
2018-07-05T03:40:15.141Z,97734.43
2018-07-05T03:42:54.777Z,97737.78
2018-07-05T03:45:34.201Z,97748.02
2018-07-05T03:48:13.562Z,97745.09
2018-07-05T03:50:52.961Z,97739.98
2018-07-05T03:53:32.657Z,97749.86
2018-07-05T03:56:12.393Z,97744.56
2018-07-05T03:58:51.959Z,97740.83
2018-07-05T04:01:32.461Z,97734.74
2018-07-05T04:04:11.936Z,97731.79
2018-07-05T04:06:51.460Z,97735.95
2018-07-05T04:09:30.847Z,97736.34
2018-07-05T04:12:10.276Z,97737.52
2018-07-05T04:14:49.782Z,97735.39
2018-07-05T04:17:29.218Z,97737.75
2018-07-05T04:20:08.694Z,97743.25
2018-07-05T04:22:48.334Z,97746.02
2018-07-05T04:25:27.826Z,97740.32
2018-07-05T04:28:07.478Z,97735.97
2018-07-05T04:30:46.963Z,97748.15
2018-07-05T04:33:26.498Z,97745.40
2018-07-05T04:36:06.008Z,97742.81
2018-07-05T04:38:45.525Z,97742.76
2018-07-05T04:41:25.062Z,97742.17
2018-07-05T04:44:04.565Z,97735.88
2018-07-05T04:46:44.069Z,97735.28
2018-07-05T04:49:23.617Z,97726.98
2018-07-05T04:52:03.151Z,97725.80
2018-07-05T04:54:42.587Z,97725.95
2018-07-05T04:57:22.233Z,97725.48
2018-07-05T05:00:01.667Z,97734.11
2018-07-05T05:02:41.117Z,97745.09
2018-07-05T05:05:20.751Z,97739.09
2018-07-05T05:08:00.253Z,97741.56
2018-07-05T05:10:39.609Z,97739.81
2018-07-05T05:13:19.436Z,97741.97
2018-07-05T05:15:59.046Z,97746.13
2018-07-05T05:18:38.571Z,97741.98
2018-07-05T05:21:18.026Z,97735.62
2018-07-05T05:23:57.714Z,97741.80
2018-07-05T05:26:37.186Z,97742.62
2018-07-05T05:29:16.718Z,97749.23
2018-07-05T05:31:56.145Z,97751.55
2018-07-05T05:34:35.600Z,97746.75
2018-07-05T05:37:15.109Z,97744.37
2018-07-05T05:39:54.569Z,97736.08
2018-07-05T05:42:34.213Z,97740.30
2018-07-05T05:45:13.782Z,97736.42
2018-07-05T05:47:53.385Z,97736.39
2018-07-05T05:50:32.886Z,97733.96
2018-07-05T05:53:12.260Z,97736.41
2018-07-05T05:55:51.719Z,97736.03
2018-07-05T05:58:31.536Z,97731.16
2018-07-05T06:01:11.009Z,97741.53
2018-07-05T06:03:50.619Z,97732.94
2018-07-05T06:06:30.121Z,97739.29
2018-07-05T06:09:09.615Z,97734.04
2018-07-05T06:11:49.069Z,97738.96
2018-07-05T06:14:28.480Z,97728.69
2018-07-05T06:17:08.011Z,97721.34
2018-07-05T06:19:47.796Z,97714.00
2018-07-05T06:22:27.352Z,97713.50
2018-07-05T06:25:06.975Z,97707.89
2018-07-05T06:27:46.496Z,97715.37
2018-07-05T06:30:26.024Z,97722.31
2018-07-05T06:33:05.494Z,97727.42
2018-07-05T06:35:44.968Z,97724.25
2018-07-05T06:38:24.566Z,97718.77
2018-07-05T06:41:03.982Z,97717.68
2018-07-05T06:43:43.482Z,97726.10
2018-07-05T06:46:22.988Z,97728.23
2018-07-05T06:49:02.553Z,97732.48
2018-07-05T06:51:42.056Z,97725.38
2018-07-05T06:54:21.738Z,97727.61
2018-07-05T06:57:01.366Z,97724.33
2018-07-05T06:59:40.840Z,97723.30
2018-07-05T07:02:20.369Z,97719.56
2018-07-05T07:04:59.907Z,97726.73
2018-07-05T07:07:39.531Z,97723.43
2018-07-05T07:10:19.033Z,97721.40
2018-07-05T07:12:58.524Z,97719.25
2018-07-05T07:15:38.008Z,97716.55
2018-07-05T07:18:17.579Z,97715.04
2018-07-05T07:20:57.102Z,97705.85
2018-07-05T07:23:36.637Z,97707.20
2018-07-05T07:26:16.137Z,97709.03
2018-07-05T07:28:55.617Z,97706.56
2018-07-05T07:31:35.203Z,97702.88
2018-07-05T07:34:14.825Z,97710.05
2018-07-05T07:36:54.231Z,97706.94
2018-07-05T07:39:33.724Z,97705.36
2018-07-05T07:42:00.846Z,97706.63
2018-07-05T07:44:27.949Z,97694.64
2018-07-05T07:46:55.054Z,97693.39
2018-07-05T07:49:22.162Z,97696.24
2018-07-05T07:51:49.262Z,97685.70
2018-07-05T07:54:16.358Z,97686.20
2018-07-05T07:56:43.458Z,97682.76
2018-07-05T07:59:10.551Z,97680.36
2018-07-05T08:01:37.661Z,97676.11
2018-07-05T08:04:04.774Z,97675.34
2018-07-05T08:06:31.871Z,97677.36
2018-07-05T08:08:58.975Z,97682.45
2018-07-05T08:11:26.397Z,97682.52
2018-07-05T08:13:53.503Z,97678.92
2018-07-05T08:16:20.637Z,97683.77
2018-07-05T08:18:47.703Z,97681.58
2018-07-05T08:21:14.802Z,97684.08
2018-07-05T08:23:41.901Z,97685.91
2018-07-05T08:26:09.011Z,97682.34
2018-07-05T08:28:36.108Z,97675.03
2018-07-05T08:31:03.211Z,97672.65
2018-07-05T08:33:30.643Z,97671.92
2018-07-05T08:35:57.744Z,97673.31
2018-07-05T08:38:24.839Z,97674.56
2018-07-05T08:40:51.951Z,97669.13
2018-07-05T08:43:19.065Z,97667.09
2018-07-05T08:45:46.155Z,97663.55
2018-07-05T08:48:13.268Z,97663.56
2018-07-05T08:50:40.348Z,97663.23
2018-07-05T08:53:07.459Z,97665.70
2018-07-05T08:55:34.562Z,97662.61
2018-07-05T08:58:01.978Z,97657.61
2018-07-05T09:00:29.076Z,97650.43
2018-07-05T09:02:56.189Z,97658.41
2018-07-05T09:05:23.310Z,97647.38
2018-07-05T09:07:50.387Z,97649.89
2018-07-05T09:10:17.498Z,97643.38
2018-07-05T09:12:44.654Z,97647.95
2018-07-05T09:15:12.029Z,97643.27
2018-07-05T09:17:39.263Z,97647.29
2018-07-05T09:20:06.253Z,97644.81
2018-07-05T09:22:33.362Z,97646.75
2018-07-05T09:25:00.473Z,97644.54
2018-07-05T09:27:27.591Z,97641.68
2018-07-05T09:29:54.682Z,97639.38
2018-07-05T09:32:21.790Z,97643.09
2018-07-05T09:34:48.914Z,97636.03
2018-07-05T09:37:16.077Z,97638.87
2018-07-05T09:39:43.118Z,97632.08
2018-07-05T09:42:10.216Z,97632.21
2018-07-05T09:44:37.314Z,97625.59
2018-07-05T09:47:04.537Z,97627.81
2018-07-05T09:49:31.520Z,97623.73
2018-07-05T09:51:58.627Z,97619.22
2018-07-05T09:54:25.778Z,97618.92
2018-07-05T09:56:53.062Z,97609.94
2018-07-05T09:59:20.166Z,97612.34
2018-07-05T10:01:47.277Z,97610.99
2018-07-05T10:04:14.385Z,97606.09
2018-07-05T10:06:41.497Z,97604.59
2018-07-05T10:09:08.601Z,97601.41
2018-07-05T10:11:35.697Z,97595.23
2018-07-05T10:14:02.802Z,97588.02
2018-07-05T10:16:29.933Z,97592.00
2018-07-05T10:18:57.069Z,97584.41
2018-07-05T10:21:24.173Z,97582.10
2018-07-05T10:23:51.282Z,97579.66
2018-07-05T10:26:18.389Z,97577.13
2018-07-05T10:28:57.875Z,97571.03
2018-07-05T10:31:37.397Z,97574.55
2018-07-05T10:34:04.523Z,97574.47
2018-07-05T10:36:32.326Z,97572.66
2018-07-05T10:38:59.442Z,97561.95
2018-07-05T10:41:38.912Z,97562.63
2018-07-05T10:44:18.567Z,97560.70
2018-07-05T10:46:58.266Z,97561.47
2018-07-05T10:49:37.720Z,97562.63
2018-07-05T10:52:17.082Z,97556.94
2018-07-05T10:54:56.410Z,97553.62
2018-07-05T10:57:35.946Z,97549.39
2018-07-05T11:00:15.366Z,97552.80
2018-07-05T11:02:54.958Z,97550.30
2018-07-05T11:05:34.488Z,97540.31
2018-07-05T11:08:14.141Z,97536.38
2018-07-05T11:10:53.766Z,97534.98
2018-07-05T11:13:33.273Z,97533.63
2018-07-05T11:16:12.784Z,97528.44
2018-07-05T11:18:52.437Z,97526.69
2018-07-05T11:21:31.942Z,97521.52
2018-07-05T11:24:11.668Z,97525.13
2018-07-05T11:26:51.209Z,97523.92
2018-07-05T11:29:30.729Z,97523.06
2018-07-05T11:32:10.291Z,97517.05
2018-07-05T11:34:49.761Z,97515.35
2018-07-05T11:37:29.281Z,97504.15
2018-07-05T11:40:08.705Z,97498.63
2018-07-05T11:42:48.264Z,97504.12
2018-07-05T11:45:27.833Z,97500.89
2018-07-05T11:48:07.499Z,97489.54
2018-07-05T11:50:47.245Z,97495.81
2018-07-05T11:53:26.703Z,97495.36
2018-07-05T11:56:06.258Z,97486.07
2018-07-05T11:58:45.792Z,97488.48
2018-07-05T12:01:25.274Z,97495.81
2018-07-05T12:04:04.826Z,97488.67
2018-07-05T12:06:44.302Z,97480.66
2018-07-05T12:09:23.800Z,97483.90
2018-07-05T12:12:03.274Z,97475.66
2018-07-05T12:14:42.749Z,97473.64
2018-07-05T12:17:22.334Z,97477.98
2018-07-05T12:20:01.884Z,97466.69
2018-07-05T12:22:41.553Z,97458.02
2018-07-05T12:25:21.285Z,97455.41
2018-07-05T12:28:00.733Z,97456.53
2018-07-05T12:30:40.415Z,97451.53
2018-07-05T12:33:19.913Z,97448.23
2018-07-05T12:35:59.323Z,97445.13
2018-07-05T12:38:38.799Z,97445.20
2018-07-05T12:41:18.211Z,97449.59
2018-07-05T12:43:57.757Z,97443.89
2018-07-05T12:46:37.259Z,97438.98
2018-07-05T12:49:16.748Z,97437.17
2018-07-05T12:51:56.340Z,97444.22
2018-07-05T12:54:35.906Z,97432.23
2018-07-05T12:57:15.526Z,97437.38
2018-07-05T12:59:55.042Z,97430.27
2018-07-05T13:02:34.548Z,97425.14
2018-07-05T13:05:13.926Z,97425.35
2018-07-05T13:07:53.478Z,97424.98
2018-07-05T13:10:33.187Z,97426.30
2018-07-05T13:13:12.722Z,97423.55
2018-07-05T13:15:52.178Z,97420.38
2018-07-05T13:18:31.686Z,97423.56
2018-07-05T13:21:11.138Z,97409.34
2018-07-05T13:23:50.651Z,97409.97
2018-07-05T13:26:30.154Z,97403.55
2018-07-05T13:29:09.682Z,97401.37
2018-07-05T13:31:49.290Z,97401.83
2018-07-05T13:34:28.974Z,97400.78
2018-07-05T13:37:08.394Z,97405.33
2018-07-05T13:39:47.828Z,97400.95
2018-07-05T13:42:27.409Z,97394.34
2018-07-05T13:45:06.869Z,97393.81
2018-07-05T13:47:46.399Z,97398.77
2018-07-05T13:50:25.897Z,97404.59
2018-07-05T13:53:05.557Z,97395.80
2018-07-05T13:55:45.145Z,97395.28
2018-07-05T13:58:24.816Z,97392.11
2018-07-05T14:01:04.241Z,97403.95
2018-07-05T14:03:43.736Z,97404.02
2018-07-05T14:06:23.106Z,97397.78
2018-07-05T14:09:02.649Z,97402.81
2018-07-05T14:11:42.165Z,97395.41
2018-07-05T14:14:21.693Z,97400.22
2018-07-05T14:17:01.282Z,97396.91
2018-07-05T14:19:40.738Z,97395.74
2018-07-05T14:22:20.198Z,97393.48
2018-07-05T14:24:59.744Z,97395.13
2018-07-05T14:27:39.298Z,97391.12
2018-07-05T14:30:18.890Z,97395.39
2018-07-05T14:32:58.500Z,97395.23
2018-07-05T14:35:38.042Z,97397.98
2018-07-05T14:38:17.568Z,97398.27
2018-07-05T14:40:57.154Z,97398.53
2018-07-05T14:43:36.786Z,97394.16
2018-07-05T14:46:16.317Z,97415.15
2018-07-05T14:48:55.745Z,97406.53
2018-07-05T14:51:35.202Z,97419.91
2018-07-05T14:54:14.740Z,97423.34
2018-07-05T14:56:54.273Z,97430.20
2018-07-05T14:59:33.720Z,97434.23
2018-07-05T15:02:13.413Z,97440.05
2018-07-05T15:04:53.311Z,97446.67
2018-07-05T15:07:32.837Z,97455.16
2018-07-05T15:10:12.365Z,97446.59
2018-07-05T15:12:52.028Z,97444.15
2018-07-05T15:15:31.565Z,97440.27
2018-07-05T15:18:11.037Z,97465.19
2018-07-05T15:20:51.223Z,97462.05
2018-07-05T15:23:30.722Z,97474.63
2018-07-05T15:26:10.460Z,97470.20
2018-07-05T15:28:50.033Z,97465.80
2018-07-05T15:31:29.531Z,97472.25
2018-07-05T15:34:09.140Z,97459.27
2018-07-05T15:36:48.684Z,97457.27
2018-07-05T15:39:28.262Z,97467.33
2018-07-05T15:42:07.762Z,97456.75
2018-07-05T15:44:47.230Z,97458.49
2018-07-05T15:47:26.719Z,97458.55
2018-07-05T15:50:06.189Z,97471.16
2018-07-05T15:52:45.777Z,97464.37
2018-07-05T15:55:25.307Z,97471.14
2018-07-05T15:58:04.930Z,97472.00
2018-07-05T16:00:44.372Z,97465.02
2018-07-05T16:03:24.054Z,97469.34
2018-07-05T16:06:03.633Z,97478.02
2018-07-05T16:08:43.217Z,97476.44
2018-07-05T16:11:22.801Z,97471.78
2018-07-05T16:14:02.501Z,97470.03
2018-07-05T16:16:41.993Z,97477.08
2018-07-05T16:19:21.464Z,97474.92
2018-07-05T16:22:01.201Z,97483.26
2018-07-05T16:24:40.777Z,97483.59
2018-07-05T16:27:20.224Z,97482.94
2018-07-05T16:29:59.919Z,97490.93
2018-07-05T16:32:39.582Z,97491.19
2018-07-05T16:35:19.087Z,97491.17
2018-07-05T16:37:58.679Z,97493.25
2018-07-05T16:40:38.170Z,97493.25
2018-07-05T16:43:17.762Z,97506.42
2018-07-05T16:45:57.382Z,97499.14
2018-07-05T16:48:36.818Z,97499.10
2018-07-05T16:51:16.242Z,97508.95
2018-07-05T16:53:55.845Z,97511.73
2018-07-05T16:56:35.325Z,97510.09
2018-07-05T16:59:14.960Z,97524.64
2018-07-05T17:01:54.679Z,97520.17
2018-07-05T17:04:34.179Z,97522.51
2018-07-05T17:07:13.746Z,97534.32
2018-07-05T17:09:53.333Z,97527.84
2018-07-05T17:12:32.893Z,97532.25
2018-07-05T17:15:12.426Z,97535.41
2018-07-05T17:17:52.046Z,97533.03
2018-07-05T17:20:31.592Z,97535.81
2018-07-05T17:23:11.230Z,97533.76
2018-07-05T17:25:50.654Z,97535.08
2018-07-05T17:28:30.118Z,97539.99
2018-07-05T17:31:09.528Z,97549.84
2018-07-05T17:33:49.198Z,97546.45
2018-07-05T17:36:29.381Z,97554.02
2018-07-05T17:39:08.990Z,97555.01
2018-07-05T17:41:48.532Z,97557.34
2018-07-05T17:44:27.984Z,97566.46
2018-07-05T17:47:07.527Z,97565.03
2018-07-05T17:49:47.077Z,97574.44
2018-07-05T17:52:26.588Z,97574.74
2018-07-05T17:55:06.129Z,97585.77
2018-07-05T17:57:45.622Z,97588.75
2018-07-05T18:00:25.028Z,97595.27
2018-07-05T18:03:04.588Z,97608.33
2018-07-05T18:05:43.960Z,97613.34
2018-07-05T18:08:23.711Z,97624.16
2018-07-05T18:11:03.144Z,97629.05
2018-07-05T18:13:42.899Z,97636.23
2018-07-05T18:16:22.452Z,97637.87
2018-07-05T18:21:28.716Z,97641.02
2018-07-05T18:24:08.121Z,97644.39
2018-07-05T18:26:47.606Z,97650.30
2018-07-05T18:29:26.986Z,97656.22
2018-07-05T18:32:06.638Z,97655.01
2018-07-05T18:34:46.198Z,97659.16
2018-07-05T18:37:25.794Z,97658.47
2018-07-05T18:40:05.442Z,97661.85
2018-07-05T18:42:45.066Z,97663.87
2018-07-05T18:45:24.590Z,97659.03
2018-07-05T18:48:04.236Z,97658.86
2018-07-05T18:50:43.781Z,97665.47
2018-07-05T18:53:23.193Z,97661.55
2018-07-05T18:56:02.565Z,97669.56
2018-07-05T18:58:41.998Z,97672.61
2018-07-05T19:01:21.554Z,97685.69
2018-07-05T19:04:01.208Z,97688.12
2018-07-05T19:06:40.589Z,97693.64
2018-07-05T19:09:20.077Z,97703.44
2018-07-05T19:11:59.539Z,97711.33
2018-07-05T19:14:39.135Z,97712.78
2018-07-05T19:17:18.504Z,97717.10
2018-07-05T19:19:57.996Z,97724.72
2018-07-05T19:22:37.449Z,97732.05
2018-07-05T19:25:16.900Z,97743.67
2018-07-05T19:27:56.408Z,97741.50
2018-07-05T19:30:35.889Z,97740.23
2018-07-05T19:33:15.454Z,97750.45
2018-07-05T19:35:54.871Z,97747.09
2018-07-05T19:38:34.277Z,97750.64
2018-07-05T19:41:13.767Z,97743.23
2018-07-05T19:43:53.476Z,97750.84
2018-07-05T19:46:32.913Z,97754.30
2018-07-05T19:49:12.443Z,97753.06
2018-07-05T19:51:51.834Z,97741.26
2018-07-05T19:54:31.475Z,97750.72
2018-07-05T19:57:10.990Z,97754.03
2018-07-05T19:59:50.618Z,97761.58
2018-07-05T20:02:30.198Z,97756.77
2018-07-05T20:05:09.638Z,97753.98
2018-07-05T20:07:49.028Z,97752.22
2018-07-05T20:10:28.526Z,97747.17
2018-07-05T20:13:08.084Z,97745.11
2018-07-05T20:15:47.626Z,97743.97
2018-07-05T20:18:27.292Z,97744.16
2018-07-05T20:21:06.849Z,97747.39
2018-07-05T20:23:46.459Z,97748.59
2018-07-05T20:26:25.995Z,97743.13
2018-07-05T20:29:05.425Z,97737.99
2018-07-05T20:31:44.921Z,97741.49
2018-07-05T20:34:24.419Z,97741.91
2018-07-05T20:37:03.973Z,97746.71
2018-07-05T20:39:43.874Z,97749.48
2018-07-05T20:42:23.338Z,97751.13
2018-07-05T20:45:02.858Z,97744.74
2018-07-05T20:47:42.492Z,97742.56
2018-07-05T20:50:22.042Z,97744.81
2018-07-05T20:53:01.537Z,97739.73
2018-07-05T20:55:41.061Z,97740.39
2018-07-05T20:58:20.465Z,97740.67
2018-07-05T21:00:59.990Z,97742.98
2018-07-05T21:03:39.360Z,97746.72
2018-07-05T21:06:18.777Z,97745.05
2018-07-05T21:08:58.257Z,97746.72
2018-07-05T21:11:37.671Z,97747.73
2018-07-05T21:14:17.125Z,97740.81
2018-07-05T21:16:56.921Z,97739.15
2018-07-05T21:19:36.326Z,97742.56
2018-07-05T21:22:16.225Z,97744.59
2018-07-05T21:24:55.639Z,97750.63
2018-07-05T21:27:35.051Z,97743.20
2018-07-05T21:30:14.754Z,97750.17
2018-07-05T21:32:54.306Z,97747.86
2018-07-05T21:35:33.726Z,97747.73
2018-07-05T21:38:13.268Z,97743.84
2018-07-05T21:40:52.742Z,97750.91
2018-07-05T21:43:32.572Z,97754.13
2018-07-05T21:46:11.966Z,97753.31
2018-07-05T21:48:51.486Z,97754.64
2018-07-05T21:51:30.986Z,97763.04
2018-07-05T21:54:10.465Z,97762.72
2018-07-05T21:56:49.844Z,97764.88
2018-07-05T21:59:29.272Z,97772.09
2018-07-05T22:02:08.726Z,97769.31
2018-07-05T22:04:48.274Z,97770.47
2018-07-05T22:07:27.702Z,97772.50
2018-07-05T22:10:07.142Z,97775.64
2018-07-05T22:12:46.674Z,97777.85
2018-07-05T22:15:26.290Z,97778.91
2018-07-05T22:18:11.067Z,97779.70
2018-07-05T22:20:56.030Z,97784.17
2018-07-05T22:23:41.079Z,97780.43
2018-07-05T22:26:26.080Z,97777.25
2018-07-05T22:29:10.861Z,97780.29
2018-07-05T22:31:57.073Z,97780.25
2018-07-05T22:34:36.621Z,97783.30
2018-07-05T22:37:16.165Z,97779.83
2018-07-05T22:39:56.087Z,97780.84
2018-07-05T22:42:35.846Z,97777.25
2018-07-05T22:45:15.384Z,97787.27
2018-07-05T22:47:54.906Z,97782.52
2018-07-05T22:50:34.760Z,97781.31
2018-07-05T22:53:14.460Z,97778.53
2018-07-05T22:55:54.456Z,97779.98
2018-07-05T22:58:34.250Z,97783.48
2018-07-05T23:01:13.843Z,97779.23
2018-07-05T23:03:53.562Z,97785.87
2018-07-05T23:06:33.194Z,97792.38
2018-07-05T23:09:12.733Z,97790.08
2018-07-05T23:11:52.186Z,97792.02
2018-07-05T23:14:31.657Z,97794.72
2018-07-05T23:17:11.118Z,97793.03
2018-07-05T23:19:50.730Z,97793.76
2018-07-05T23:22:30.234Z,97793.15
2018-07-05T23:25:09.682Z,97793.81
2018-07-05T23:27:49.242Z,97795.14
2018-07-05T23:30:28.772Z,97796.95
2018-07-05T23:33:08.125Z,97796.71
2018-07-05T23:35:47.701Z,97788.23
2018-07-05T23:38:27.185Z,97790.12
2018-07-05T23:41:06.585Z,97782.93
2018-07-05T23:43:46.157Z,97784.48
2018-07-05T23:46:25.597Z,97780.78
2018-07-05T23:49:05.274Z,97773.35
2018-07-05T23:51:44.689Z,97779.94
2018-07-05T23:54:24.343Z,97781.18
2018-07-05T23:57:03.995Z,97776.54
2018-07-05T23:59:43.396Z,97770.08
